sensor_id;sensor_type;location;lat;lon;timestamp;pressure;altitude;pressure_sealevel;temperature;humidity
69173;BME280;56280;49.662;8.408;2023-03-14T00:01:17;98853.84;;;11.85;81.53
69173;BME280;56280;49.662;8.408;2023-03-14T00:03:43;98848.63;;;12.00;81.24
69173;BME280;56280;49.662;8.408;2023-03-14T00:06:10;98848.50;;;11.93;80.81
69173;BME280;56280;49.662;8.408;2023-03-14T00:08:36;98840.34;;;11.95;80.26
69173;BME280;56280;49.662;8.408;2023-03-14T00:11:16;98823.72;;;11.84;79.77
69173;BME280;56280;49.662;8.408;2023-03-14T00:13:42;98812.88;;;11.94;79.04
69173;BME280;56280;49.662;8.408;2023-03-14T00:16:13;98839.25;;;12.12;79.18
69173;BME280;56280;49.662;8.408;2023-03-14T00:18:39;98834.84;;;12.28;78.69
69173;BME280;56280;49.662;8.408;2023-03-14T00:21:06;98819.19;;;12.01;78.56
69173;BME280;56280;49.662;8.408;2023-03-14T00:23:34;98840.44;;;12.10;78.71
69173;BME280;56280;49.662;8.408;2023-03-14T00:26:04;98814.34;;;12.28;77.75
69173;BME280;56280;49.662;8.408;2023-03-14T00:28:29;98817.16;;;12.35;77.63
69173;BME280;56280;49.662;8.408;2023-03-14T00:30:55;98843.78;;;12.58;77.54
69173;BME280;56280;49.662;8.408;2023-03-14T00:33:21;98839.28;;;12.35;77.00
69173;BME280;56280;49.662;8.408;2023-03-14T00:35:56;98834.72;;;12.44;77.36
69173;BME280;56280;49.662;8.408;2023-03-14T00:38:23;98824.25;;;12.43;76.95
69173;BME280;56280;49.662;8.408;2023-03-14T00:40:49;98809.19;;;12.03;77.87
69173;BME280;56280;49.662;8.408;2023-03-14T00:43:15;98812.72;;;11.96;78.66
69173;BME280;56280;49.662;8.408;2023-03-14T00:45:40;98812.09;;;12.17;78.10
69173;BME280;56280;49.662;8.408;2023-03-14T00:48:05;98789.22;;;12.08;77.37
69173;BME280;56280;49.662;8.408;2023-03-14T00:50:30;98811.97;;;12.10;77.59
69173;BME280;56280;49.662;8.408;2023-03-14T00:52:56;98803.63;;;11.82;78.07
69173;BME280;56280;49.662;8.408;2023-03-14T00:55:21;98790.00;;;11.77;78.47
69173;BME280;56280;49.662;8.408;2023-03-14T00:57:46;98784.16;;;11.81;78.08
69173;BME280;56280;49.662;8.408;2023-03-14T01:00:12;98809.13;;;12.12;76.99
69173;BME280;56280;49.662;8.408;2023-03-14T01:02:38;98804.50;;;12.06;76.90
69173;BME280;56280;49.662;8.408;2023-03-14T01:05:03;98803.63;;;12.13;76.82
69173;BME280;56280;49.662;8.408;2023-03-14T01:07:29;98825.94;;;12.12;76.69
69173;BME280;56280;49.662;8.408;2023-03-14T01:09:54;98843.44;;;12.07;77.17
69173;BME280;56280;49.662;8.408;2023-03-14T01:12:19;98846.09;;;12.07;77.69
69173;BME280;56280;49.662;8.408;2023-03-14T01:14:44;98846.00;;;12.23;76.93
69173;BME280;56280;49.662;8.408;2023-03-14T01:17:10;98826.81;;;12.04;77.92
69173;BME280;56280;49.662;8.408;2023-03-14T01:19:35;98802.09;;;11.88;77.13
69173;BME280;56280;49.662;8.408;2023-03-14T01:22:00;98784.03;;;11.75;78.02
69173;BME280;56280;49.662;8.408;2023-03-14T01:24:25;98812.59;;;11.81;78.31
69173;BME280;56280;49.662;8.408;2023-03-14T01:26:51;98825.50;;;12.00;77.91
69173;BME280;56280;49.662;8.408;2023-03-14T01:29:16;98816.22;;;11.96;78.43
69173;BME280;56280;49.662;8.408;2023-03-14T01:31:41;98824.41;;;11.78;78.83
69173;BME280;56280;49.662;8.408;2023-03-14T01:34:06;98814.97;;;12.07;78.19
69173;BME280;56280;49.662;8.408;2023-03-14T01:36:32;98793.44;;;11.94;78.04
69173;BME280;56280;49.662;8.408;2023-03-14T01:38:57;98796.09;;;11.94;77.83
69173;BME280;56280;49.662;8.408;2023-03-14T01:41:24;98808.59;;;11.85;78.51
69173;BME280;56280;49.662;8.408;2023-03-14T01:43:50;98787.88;;;11.64;78.72
69173;BME280;56280;49.662;8.408;2023-03-14T01:46:24;98797.88;;;11.62;79.41
69173;BME280;56280;49.662;8.408;2023-03-14T01:49:10;98792.97;;;11.82;78.33
69173;BME280;56280;49.662;8.408;2023-03-14T01:51:50;98761.66;;;11.53;78.86
69173;BME280;56280;49.662;8.408;2023-03-14T01:54:31;98774.44;;;11.57;78.87
69173;BME280;56280;49.662;8.408;2023-03-14T01:57:06;98746.81;;;11.27;79.83
69173;BME280;56280;49.662;8.408;2023-03-14T01:59:34;98778.53;;;11.28;80.24
69173;BME280;56280;49.662;8.408;2023-03-14T02:02:00;98786.88;;;11.25;80.89
69173;BME280;56280;49.662;8.408;2023-03-14T02:04:30;98760.25;;;11.42;79.75
69173;BME280;56280;49.662;8.408;2023-03-14T02:07:15;98743.31;;;11.35;79.17
69173;BME280;56280;49.662;8.408;2023-03-14T02:09:41;98734.94;;;11.06;80.55
69173;BME280;56280;49.662;8.408;2023-03-14T02:12:12;98726.41;;;11.27;79.16
69173;BME280;56280;49.662;8.408;2023-03-14T02:14:39;98734.19;;;11.29;79.63
69173;BME280;56280;49.662;8.408;2023-03-14T02:17:06;98703.75;;;10.92;80.34
69173;BME280;56280;49.662;8.408;2023-03-14T02:19:38;98710.66;;;11.18;80.02
69173;BME280;56280;49.662;8.408;2023-03-14T02:22:12;98716.03;;;11.41;79.53
69173;BME280;56280;49.662;8.408;2023-03-14T02:25:02;98696.94;;;10.89;80.87
69173;BME280;56280;49.662;8.408;2023-03-14T02:27:30;98702.53;;;11.03;81.08
69173;BME280;56280;49.662;8.408;2023-03-14T02:30:03;98694.78;;;11.01;80.31
69173;BME280;56280;49.662;8.408;2023-03-14T02:32:31;98704.94;;;10.81;81.54
69173;BME280;56280;49.662;8.408;2023-03-14T02:35:00;98720.28;;;11.10;81.23
69173;BME280;56280;49.662;8.408;2023-03-14T02:40:18;98683.47;;;11.39;79.80
69173;BME280;56280;49.662;8.408;2023-03-14T02:42:58;98679.41;;;11.51;79.49
69173;BME280;56280;49.662;8.408;2023-03-14T02:47:54;98708.78;;;11.89;77.86
69173;BME280;56280;49.662;8.408;2023-03-14T02:50:22;98713.50;;;11.79;78.23
69173;BME280;56280;49.662;8.408;2023-03-14T02:52:49;98702.03;;;11.78;77.61
69173;BME280;56280;49.662;8.408;2023-03-14T02:55:15;98700.31;;;11.62;78.47
69173;BME280;56280;49.662;8.408;2023-03-14T02:57:44;98670.44;;;11.52;78.12
69173;BME280;56280;49.662;8.408;2023-03-14T03:00:10;98721.78;;;11.92;77.90
69173;BME280;56280;49.662;8.408;2023-03-14T03:02:36;98661.94;;;11.80;76.88
69173;BME280;56280;49.662;8.408;2023-03-14T03:05:01;98681.84;;;11.92;76.47
69173;BME280;56280;49.662;8.408;2023-03-14T03:07:26;98679.22;;;11.84;76.18
69173;BME280;56280;49.662;8.408;2023-03-14T03:09:51;98673.34;;;11.65;76.74
69173;BME280;56280;49.662;8.408;2023-03-14T03:12:17;98681.69;;;11.94;76.28
69173;BME280;56280;49.662;8.408;2023-03-14T03:14:42;98667.09;;;11.58;76.34
69173;BME280;56280;49.662;8.408;2023-03-14T03:17:07;98648.69;;;11.72;75.94
69173;BME280;56280;49.662;8.408;2023-03-14T03:19:33;98671.94;;;11.78;76.12
69173;BME280;56280;49.662;8.408;2023-03-14T03:21:59;98668.59;;;11.84;75.46
69173;BME280;56280;49.662;8.408;2023-03-14T03:24:25;98646.91;;;11.64;75.52
69173;BME280;56280;49.662;8.408;2023-03-14T03:26:51;98638.31;;;11.30;76.25
69173;BME280;56280;49.662;8.408;2023-03-14T03:29:16;98646.34;;;11.77;75.84
69173;BME280;56280;49.662;8.408;2023-03-14T03:31:41;98619.09;;;11.52;74.69
69173;BME280;56280;49.662;8.408;2023-03-14T03:34:07;98621.09;;;11.73;74.59
69173;BME280;56280;49.662;8.408;2023-03-14T03:36:32;98605.16;;;11.73;73.79
69173;BME280;56280;49.662;8.408;2023-03-14T03:38:58;98588.13;;;11.36;74.40
69173;BME280;56280;49.662;8.408;2023-03-14T03:41:23;98613.72;;;11.37;75.33
69173;BME280;56280;49.662;8.408;2023-03-14T03:43:48;98609.72;;;11.32;75.33
69173;BME280;56280;49.662;8.408;2023-03-14T03:46:13;98605.06;;;11.35;74.59
69173;BME280;56280;49.662;8.408;2023-03-14T03:48:39;98611.22;;;11.58;74.39
69173;BME280;56280;49.662;8.408;2023-03-14T03:51:04;98588.69;;;11.46;73.59
69173;BME280;56280;49.662;8.408;2023-03-14T03:53:29;98623.03;;;11.56;73.16
69173;BME280;56280;49.662;8.408;2023-03-14T03:55:55;98600.09;;;11.31;73.54
69173;BME280;56280;49.662;8.408;2023-03-14T03:58:20;98598.03;;;11.10;74.18
69173;BME280;56280;49.662;8.408;2023-03-14T04:00:45;98598.69;;;11.21;73.29
69173;BME280;56280;49.662;8.408;2023-03-14T04:03:10;98616.72;;;11.34;73.68
69173;BME280;56280;49.662;8.408;2023-03-14T04:05:36;98612.78;;;11.21;74.51
69173;BME280;56280;49.662;8.408;2023-03-14T04:08:01;98630.69;;;11.27;73.37
69173;BME280;56280;49.662;8.408;2023-03-14T04:10:27;98630.94;;;11.41;74.13
69173;BME280;56280;49.662;8.408;2023-03-14T04:12:52;98617.19;;;11.60;72.76
69173;BME280;56280;49.662;8.408;2023-03-14T04:15:18;98629.50;;;11.61;72.43
69173;BME280;56280;49.662;8.408;2023-03-14T04:17:43;98600.72;;;11.65;71.99
69173;BME280;56280;49.662;8.408;2023-03-14T04:20:09;98602.09;;;11.61;71.58
69173;BME280;56280;49.662;8.408;2023-03-14T04:22:38;98628.44;;;11.71;71.90
69173;BME280;56280;49.662;8.408;2023-03-14T04:25:05;98604.78;;;11.76;71.55
69173;BME280;56280;49.662;8.408;2023-03-14T04:27:30;98609.00;;;11.93;70.65
69173;BME280;56280;49.662;8.408;2023-03-14T04:29:55;98616.44;;;11.75;70.84
69173;BME280;56280;49.662;8.408;2023-03-14T04:32:21;98569.91;;;11.47;70.65
69173;BME280;56280;49.662;8.408;2023-03-14T04:34:46;98603.44;;;11.57;71.38
69173;BME280;56280;49.662;8.408;2023-03-14T04:37:12;98613.31;;;11.71;71.67
69173;BME280;56280;49.662;8.408;2023-03-14T04:39:37;98599.13;;;11.79;71.48
69173;BME280;56280;49.662;8.408;2023-03-14T04:42:02;98613.06;;;11.81;72.04
69173;BME280;56280;49.662;8.408;2023-03-14T04:44:28;98595.06;;;11.83;71.93
69173;BME280;56280;49.662;8.408;2023-03-14T04:46:53;98581.22;;;11.73;71.70
69173;BME280;56280;49.662;8.408;2023-03-14T04:49:18;98602.09;;;11.53;71.79
69173;BME280;56280;49.662;8.408;2023-03-14T04:51:43;98621.41;;;12.01;71.82
69173;BME280;56280;49.662;8.408;2023-03-14T04:54:09;98601.13;;;12.00;71.99
69173;BME280;56280;49.662;8.408;2023-03-14T04:56:34;98595.63;;;12.01;72.35
69173;BME280;56280;49.662;8.408;2023-03-14T04:58:59;98592.44;;;12.06;71.90
69173;BME280;56280;49.662;8.408;2023-03-14T05:01:24;98561.69;;;12.03;71.29
69173;BME280;56280;49.662;8.408;2023-03-14T05:03:50;98574.38;;;12.16;71.58
69173;BME280;56280;49.662;8.408;2023-03-14T05:06:15;98574.47;;;11.85;72.37
69173;BME280;56280;49.662;8.408;2023-03-14T05:08:40;98550.75;;;11.98;71.53
69173;BME280;56280;49.662;8.408;2023-03-14T05:11:06;98568.31;;;12.08;71.56
69173;BME280;56280;49.662;8.408;2023-03-14T05:13:31;98572.16;;;11.82;72.39
69173;BME280;56280;49.662;8.408;2023-03-14T05:16:05;98590.31;;;12.01;72.88
69173;BME280;56280;49.662;8.408;2023-03-14T05:18:31;98581.56;;;11.93;72.64
69173;BME280;56280;49.662;8.408;2023-03-14T05:20:56;98575.28;;;11.85;72.60
69173;BME280;56280;49.662;8.408;2023-03-14T05:23:21;98567.13;;;11.87;72.37
69173;BME280;56280;49.662;8.408;2023-03-14T05:25:46;98578.28;;;12.06;72.04
69173;BME280;56280;49.662;8.408;2023-03-14T05:28:12;98547.13;;;11.91;72.12
69173;BME280;56280;49.662;8.408;2023-03-14T05:30:37;98574.94;;;11.89;72.41
69173;BME280;56280;49.662;8.408;2023-03-14T05:33:02;98538.66;;;11.73;72.59
69173;BME280;56280;49.662;8.408;2023-03-14T05:35:28;98564.97;;;12.06;71.73
69173;BME280;56280;49.662;8.408;2023-03-14T05:37:53;98553.13;;;11.93;70.91
69173;BME280;56280;49.662;8.408;2023-03-14T05:40:18;98552.94;;;11.72;71.25
69173;BME280;56280;49.662;8.408;2023-03-14T05:42:44;98570.59;;;11.88;70.94
69173;BME280;56280;49.662;8.408;2023-03-14T05:45:09;98565.34;;;11.79;70.82
69173;BME280;56280;49.662;8.408;2023-03-14T05:47:34;98546.81;;;11.71;70.47
69173;BME280;56280;49.662;8.408;2023-03-14T05:50:00;98576.13;;;11.63;70.07
69173;BME280;56280;49.662;8.408;2023-03-14T05:52:25;98568.25;;;11.70;70.49
69173;BME280;56280;49.662;8.408;2023-03-14T05:54:50;98581.66;;;11.76;72.04
69173;BME280;56280;49.662;8.408;2023-03-14T05:57:16;98553.03;;;11.78;71.67
69173;BME280;56280;49.662;8.408;2023-03-14T05:59:41;98579.22;;;11.98;71.55
69173;BME280;56280;49.662;8.408;2023-03-14T06:02:06;98576.34;;;11.76;71.62
69173;BME280;56280;49.662;8.408;2023-03-14T06:04:31;98583.16;;;11.79;71.88
69173;BME280;56280;49.662;8.408;2023-03-14T06:06:57;98554.16;;;11.69;73.25
69173;BME280;56280;49.662;8.408;2023-03-14T06:09:22;98562.19;;;11.61;72.63
69173;BME280;56280;49.662;8.408;2023-03-14T06:11:48;98581.94;;;11.43;73.76
69173;BME280;56280;49.662;8.408;2023-03-14T06:14:14;98562.34;;;11.82;71.82
69173;BME280;56280;49.662;8.408;2023-03-14T06:16:39;98585.28;;;11.83;71.34
69173;BME280;56280;49.662;8.408;2023-03-14T06:19:04;98579.84;;;11.54;72.43
69173;BME280;56280;49.662;8.408;2023-03-14T06:21:29;98594.91;;;11.38;72.21
69173;BME280;56280;49.662;8.408;2023-03-14T06:23:55;98586.34;;;11.51;72.49
69173;BME280;56280;49.662;8.408;2023-03-14T06:26:20;98574.25;;;11.48;72.74
69173;BME280;56280;49.662;8.408;2023-03-14T06:28:46;98576.09;;;11.40;72.10
69173;BME280;56280;49.662;8.408;2023-03-14T06:31:12;98577.38;;;11.75;71.84
69173;BME280;56280;49.662;8.408;2023-03-14T06:33:37;98557.09;;;11.51;72.28
69173;BME280;56280;49.662;8.408;2023-03-14T06:36:02;98577.59;;;11.65;72.30
69173;BME280;56280;49.662;8.408;2023-03-14T06:38:28;98558.34;;;11.09;72.88
69173;BME280;56280;49.662;8.408;2023-03-14T06:40:53;98574.22;;;11.25;73.36
69173;BME280;56280;49.662;8.408;2023-03-14T06:43:18;98563.69;;;11.09;73.44
69173;BME280;56280;49.662;8.408;2023-03-14T06:45:43;98549.97;;;10.97;72.48
69173;BME280;56280;49.662;8.408;2023-03-14T06:48:08;98567.53;;;11.29;72.59
69173;BME280;56280;49.662;8.408;2023-03-14T06:50:34;98537.53;;;11.44;71.41
69173;BME280;56280;49.662;8.408;2023-03-14T06:52:59;98545.44;;;11.52;70.78
69173;BME280;56280;49.662;8.408;2023-03-14T06:55:24;98572.81;;;11.38;71.87
69173;BME280;56280;49.662;8.408;2023-03-14T06:57:51;98557.09;;;11.51;71.14
69173;BME280;56280;49.662;8.408;2023-03-14T07:00:16;98531.38;;;11.20;71.62
69173;BME280;56280;49.662;8.408;2023-03-14T07:02:42;98558.16;;;11.42;70.92
69173;BME280;56280;49.662;8.408;2023-03-14T07:05:07;98562.47;;;11.66;70.24
69173;BME280;56280;49.662;8.408;2023-03-14T07:07:32;98565.25;;;11.73;70.42
69173;BME280;56280;49.662;8.408;2023-03-14T07:09:58;98549.19;;;11.66;70.37
69173;BME280;56280;49.662;8.408;2023-03-14T07:12:23;98529.00;;;11.72;70.38
69173;BME280;56280;49.662;8.408;2023-03-14T07:14:48;98559.00;;;12.03;69.68
69173;BME280;56280;49.662;8.408;2023-03-14T07:17:14;98562.16;;;11.84;70.41
69173;BME280;56280;49.662;8.408;2023-03-14T07:19:39;98552.84;;;11.65;70.88
69173;BME280;56280;49.662;8.408;2023-03-14T07:22:05;98543.59;;;11.53;71.35
69173;BME280;56280;49.662;8.408;2023-03-14T07:24:30;98556.19;;;11.59;72.19
69173;BME280;56280;49.662;8.408;2023-03-14T07:26:56;98565.59;;;11.23;73.21
69173;BME280;56280;49.662;8.408;2023-03-14T07:29:21;98547.06;;;11.61;72.60
69173;BME280;56280;49.662;8.408;2023-03-14T07:31:47;98554.25;;;11.76;71.83
69173;BME280;56280;49.662;8.408;2023-03-14T07:34:12;98552.59;;;11.98;71.96
69173;BME280;56280;49.662;8.408;2023-03-14T07:36:37;98558.22;;;12.18;71.23
69173;BME280;56280;49.662;8.408;2023-03-14T07:39:03;98549.75;;;11.76;72.55
69173;BME280;56280;49.662;8.408;2023-03-14T07:41:29;98522.69;;;11.73;72.52
69173;BME280;56280;49.662;8.408;2023-03-14T07:43:54;98538.16;;;11.92;71.87
69173;BME280;56280;49.662;8.408;2023-03-14T07:46:20;98545.91;;;11.79;73.01
69173;BME280;56280;49.662;8.408;2023-03-14T07:48:48;98542.31;;;12.10;71.65
69173;BME280;56280;49.662;8.408;2023-03-14T07:51:13;98529.50;;;11.90;71.72
69173;BME280;56280;49.662;8.408;2023-03-14T07:53:38;98518.78;;;11.83;71.99
69173;BME280;56280;49.662;8.408;2023-03-14T07:56:04;98536.19;;;12.24;71.48
69173;BME280;56280;49.662;8.408;2023-03-14T07:58:30;98547.38;;;12.64;69.46
69173;BME280;56280;49.662;8.408;2023-03-14T08:00:58;98551.97;;;12.70;70.10
69173;BME280;56280;49.662;8.408;2023-03-14T08:03:23;98557.31;;;13.07;69.00
69173;BME280;56280;49.662;8.408;2023-03-14T08:05:50;98554.41;;;13.38;67.57
69173;BME280;56280;49.662;8.408;2023-03-14T08:08:16;98537.22;;;13.26;66.46
69173;BME280;56280;49.662;8.408;2023-03-14T08:10:41;98560.75;;;13.37;67.32
69173;BME280;56280;49.662;8.408;2023-03-14T08:13:07;98538.41;;;13.23;67.22
69173;BME280;56280;49.662;8.408;2023-03-14T08:15:32;98561.41;;;13.61;67.12
69173;BME280;56280;49.662;8.408;2023-03-14T08:17:58;98562.53;;;13.52;66.44
69173;BME280;56280;49.662;8.408;2023-03-14T08:20:25;98571.94;;;13.69;66.23
69173;BME280;56280;49.662;8.408;2023-03-14T08:22:51;98577.50;;;13.96;66.56
69173;BME280;56280;49.662;8.408;2023-03-14T08:25:17;98578.63;;;13.80;66.18
69173;BME280;56280;49.662;8.408;2023-03-14T08:27:43;98585.53;;;14.24;65.44
69173;BME280;56280;49.662;8.408;2023-03-14T08:30:13;98585.38;;;14.04;65.67
69173;BME280;56280;49.662;8.408;2023-03-14T08:32:38;98576.00;;;14.15;64.96
69173;BME280;56280;49.662;8.408;2023-03-14T08:35:05;98590.09;;;13.80;65.67
69173;BME280;56280;49.662;8.408;2023-03-14T08:37:31;98584.38;;;13.83;66.23
69173;BME280;56280;49.662;8.408;2023-03-14T08:39:57;98584.44;;;13.90;65.20
69173;BME280;56280;49.662;8.408;2023-03-14T08:42:22;98589.59;;;13.92;65.50
69173;BME280;56280;49.662;8.408;2023-03-14T08:44:48;98587.06;;;14.12;65.64
69173;BME280;56280;49.662;8.408;2023-03-14T08:47:13;98592.69;;;13.95;65.04
69173;BME280;56280;49.662;8.408;2023-03-14T08:49:39;98591.88;;;13.95;65.82
69173;BME280;56280;49.662;8.408;2023-03-14T08:52:04;98540.75;;;13.70;65.78
69173;BME280;56280;49.662;8.408;2023-03-14T08:54:30;98550.75;;;13.24;66.57
69173;BME280;56280;49.662;8.408;2023-03-14T08:56:57;98583.41;;;13.11;68.24
69173;BME280;56280;49.662;8.408;2023-03-14T08:59:22;98589.41;;;12.99;68.88
69173;BME280;56280;49.662;8.408;2023-03-14T09:01:48;98598.94;;;13.23;69.32
69173;BME280;56280;49.662;8.408;2023-03-14T09:04:13;98574.88;;;13.16;68.70
69173;BME280;56280;49.662;8.408;2023-03-14T09:06:39;98579.94;;;13.47;68.54
69173;BME280;56280;49.662;8.408;2023-03-14T09:09:10;98577.81;;;13.86;67.74
69173;BME280;56280;49.662;8.408;2023-03-14T09:11:35;98587.75;;;13.92;67.24
69173;BME280;56280;49.662;8.408;2023-03-14T09:14:01;98585.97;;;13.78;67.05
69173;BME280;56280;49.662;8.408;2023-03-14T09:16:26;98577.06;;;13.92;67.12
69173;BME280;56280;49.662;8.408;2023-03-14T09:18:52;98584.06;;;14.21;67.74
69173;BME280;56280;49.662;8.408;2023-03-14T09:21:22;98581.88;;;14.32;65.86
69173;BME280;56280;49.662;8.408;2023-03-14T09:23:48;98561.69;;;14.22;66.92
69173;BME280;56280;49.662;8.408;2023-03-14T09:26:14;98580.75;;;14.19;66.31
69173;BME280;56280;49.662;8.408;2023-03-14T09:28:39;98581.34;;;14.15;67.35
69173;BME280;56280;49.662;8.408;2023-03-14T09:31:09;98556.50;;;14.14;66.87
69173;BME280;56280;49.662;8.408;2023-03-14T09:33:35;98571.31;;;14.17;67.37
69173;BME280;56280;49.662;8.408;2023-03-14T09:36:01;98563.84;;;14.40;66.76
69173;BME280;56280;49.662;8.408;2023-03-14T09:38:27;98583.56;;;14.68;66.37
69173;BME280;56280;49.662;8.408;2023-03-14T09:40:53;98536.09;;;14.07;66.70
69173;BME280;56280;49.662;8.408;2023-03-14T09:43:21;98575.41;;;14.19;67.59
69173;BME280;56280;49.662;8.408;2023-03-14T09:45:48;98582.72;;;14.04;67.26
69173;BME280;56280;49.662;8.408;2023-03-14T09:48:20;98579.25;;;14.10;67.49
69173;BME280;56280;49.662;8.408;2023-03-14T09:50:50;98582.72;;;14.04;67.48
69173;BME280;56280;49.662;8.408;2023-03-14T09:53:19;98588.97;;;13.90;67.77
69173;BME280;56280;49.662;8.408;2023-03-14T09:55:49;98602.59;;;14.01;67.66
69173;BME280;56280;49.662;8.408;2023-03-14T09:58:22;98583.13;;;13.58;69.19
69173;BME280;56280;49.662;8.408;2023-03-14T10:00:54;98615.66;;;13.68;69.89
69173;BME280;56280;49.662;8.408;2023-03-14T10:03:31;98597.59;;;13.48;70.59
69173;BME280;56280;49.662;8.408;2023-03-14T10:05:58;98591.13;;;13.58;70.13
69173;BME280;56280;49.662;8.408;2023-03-14T10:08:23;98592.69;;;13.52;70.41
69173;BME280;56280;49.662;8.408;2023-03-14T10:10:49;98572.63;;;13.78;69.07
69173;BME280;56280;49.662;8.408;2023-03-14T10:13:23;98593.44;;;14.11;69.47
69173;BME280;56280;49.662;8.408;2023-03-14T10:15:59;98601.78;;;14.01;69.01
69173;BME280;56280;49.662;8.408;2023-03-14T10:18:25;98586.72;;;13.72;69.97
69173;BME280;56280;49.662;8.408;2023-03-14T10:21:03;98582.56;;;13.62;70.99
69173;BME280;56280;49.662;8.408;2023-03-14T10:23:32;98594.44;;;13.60;71.59
69173;BME280;56280;49.662;8.408;2023-03-14T10:26:14;98602.38;;;13.02;74.56
69173;BME280;56280;49.662;8.408;2023-03-14T10:28:50;98585.91;;;13.13;74.10
69173;BME280;56280;49.662;8.408;2023-03-14T10:31:17;98585.47;;;13.46;73.11
69173;BME280;56280;49.662;8.408;2023-03-14T10:33:58;98602.63;;;13.58;72.27
69173;BME280;56280;49.662;8.408;2023-03-14T10:36:27;98595.94;;;13.47;72.14
69173;BME280;56280;49.662;8.408;2023-03-14T10:39:21;98597.84;;;13.17;72.96
69173;BME280;56280;49.662;8.408;2023-03-14T10:41:52;98596.72;;;13.41;73.35
69173;BME280;56280;49.662;8.408;2023-03-14T10:44:21;98594.72;;;13.13;74.62
69173;BME280;56280;49.662;8.408;2023-03-14T10:46:56;98604.59;;;12.98;75.92
69173;BME280;56280;49.662;8.408;2023-03-14T10:49:30;98597.00;;;13.17;75.60
69173;BME280;56280;49.662;8.408;2023-03-14T10:52:01;98601.09;;;12.83;76.60
69173;BME280;56280;49.662;8.408;2023-03-14T10:54:29;98592.53;;;13.02;77.08
69173;BME280;56280;49.662;8.408;2023-03-14T10:57:00;98607.69;;;13.02;78.25
69173;BME280;56280;49.662;8.408;2023-03-14T10:59:29;98616.34;;;12.89;78.07
69173;BME280;56280;49.662;8.408;2023-03-14T11:02:20;98603.78;;;12.53;80.02
69173;BME280;56280;49.662;8.408;2023-03-14T11:07:28;98621.94;;;12.34;80.90
69173;BME280;56280;49.662;8.408;2023-03-14T11:15:25;98622.53;;;12.07;81.98
69173;BME280;56280;49.662;8.408;2023-03-14T11:20:59;98643.50;;;12.39;81.11
69173;BME280;56280;49.662;8.408;2023-03-14T11:23:36;98637.47;;;12.46;81.79
69173;BME280;56280;49.662;8.408;2023-03-14T11:28:39;98628.75;;;12.52;79.24
69173;BME280;56280;49.662;8.408;2023-03-14T11:31:26;98649.06;;;12.68;79.21
69173;BME280;56280;49.662;8.408;2023-03-14T11:34:10;98638.59;;;12.66;78.30
69173;BME280;56280;49.662;8.408;2023-03-14T11:36:41;98641.97;;;12.45;78.18
69173;BME280;56280;49.662;8.408;2023-03-14T11:39:17;98668.91;;;12.65;77.33
69173;BME280;56280;49.662;8.408;2023-03-14T11:41:46;98655.41;;;12.52;76.31
69173;BME280;56280;49.662;8.408;2023-03-14T11:44:22;98658.06;;;12.52;75.92
69173;BME280;56280;49.662;8.408;2023-03-14T11:46:57;98638.16;;;12.63;75.64
69173;BME280;56280;49.662;8.408;2023-03-14T11:49:43;98679.66;;;12.57;75.10
69173;BME280;56280;49.662;8.408;2023-03-14T11:52:22;98678.00;;;12.56;73.51
69173;BME280;56280;49.662;8.408;2023-03-14T11:54:52;98675.78;;;12.45;74.29
69173;BME280;56280;49.662;8.408;2023-03-14T11:57:20;98670.91;;;12.33;73.91
69173;BME280;56280;49.662;8.408;2023-03-14T12:02:19;98741.25;;;12.92;72.71
69173;BME280;56280;49.662;8.408;2023-03-14T12:10:29;98760.47;;;13.02;71.69
69173;BME280;56280;49.662;8.408;2023-03-14T12:12:55;98768.69;;;12.63;68.07
69173;BME280;56280;49.662;8.408;2023-03-14T12:15:21;98781.81;;;12.18;65.37
69173;BME280;56280;49.662;8.408;2023-03-14T12:17:55;98804.78;;;11.79;62.52
69173;BME280;56280;49.662;8.408;2023-03-14T12:20:30;98838.63;;;11.54;63.46
69173;BME280;56280;49.662;8.408;2023-03-14T12:23:06;98857.88;;;11.73;63.46
69173;BME280;56280;49.662;8.408;2023-03-14T12:25:36;98855.94;;;11.50;62.98
69173;BME280;56280;49.662;8.408;2023-03-14T12:28:04;98871.00;;;11.74;62.92
69173;BME280;56280;49.662;8.408;2023-03-14T12:30:32;98889.72;;;11.89;61.53
69173;BME280;56280;49.662;8.408;2023-03-14T12:35:47;98897.19;;;12.02;61.15
69173;BME280;56280;49.662;8.408;2023-03-14T12:41:35;98906.91;;;12.26;60.84
69173;BME280;56280;49.662;8.408;2023-03-14T12:46:53;98922.56;;;12.52;59.58
69173;BME280;56280;49.662;8.408;2023-03-14T12:49:19;98926.69;;;12.32;59.07
69173;BME280;56280;49.662;8.408;2023-03-14T12:51:45;98946.94;;;12.01;60.15
69173;BME280;56280;49.662;8.408;2023-03-14T12:54:39;98985.47;;;12.22;60.63
69173;BME280;56280;49.662;8.408;2023-03-14T12:57:23;99000.50;;;11.98;61.26
69173;BME280;56280;49.662;8.408;2023-03-14T12:59:55;98999.00;;;11.88;61.18
69173;BME280;56280;49.662;8.408;2023-03-14T13:02:24;99013.81;;;11.65;62.97
69173;BME280;56280;49.662;8.408;2023-03-14T13:04:59;99001.88;;;11.53;62.24
69173;BME280;56280;49.662;8.408;2023-03-14T13:07:30;99017.81;;;11.61;60.85
69173;BME280;56280;49.662;8.408;2023-03-14T13:10:02;99033.09;;;11.76;60.48
69173;BME280;56280;49.662;8.408;2023-03-14T13:15:32;99036.41;;;12.19;58.20
69173;BME280;56280;49.662;8.408;2023-03-14T13:18:03;99032.44;;;11.65;59.08
69173;BME280;56280;49.662;8.408;2023-03-14T13:22:54;99070.50;;;12.15;60.12
69173;BME280;56280;49.662;8.408;2023-03-14T13:25:19;99089.81;;;12.01;59.64
69173;BME280;56280;49.662;8.408;2023-03-14T13:27:46;99089.78;;;11.84;60.90
69173;BME280;56280;49.662;8.408;2023-03-14T13:30:24;99100.75;;;11.40;62.65
69173;BME280;56280;49.662;8.408;2023-03-14T13:32:51;99118.69;;;10.87;66.34
69173;BME280;56280;49.662;8.408;2023-03-14T13:35:29;99136.44;;;10.52;68.63
69173;BME280;56280;49.662;8.408;2023-03-14T13:37:57;99138.75;;;10.47;69.98
69173;BME280;56280;49.662;8.408;2023-03-14T13:40:33;99132.41;;;10.22;70.74
69173;BME280;56280;49.662;8.408;2023-03-14T13:43:05;99137.47;;;10.51;69.64
69173;BME280;56280;49.662;8.408;2023-03-14T13:45:41;99145.88;;;10.47;69.00